Time;durP1;ratioP1;P1;durP2;ratioP2;P2;SDS_P1;SDS_P2;PMS_P1;PMS_P2;Temp;Humidity;BMP_temperature;BMP_pressure;BME280_temperature;BME280_humidity;BME280_pressure;Samples;Min_cycle;Max_cycle;Signal;HPM_P1;HPM_P2
2023/03/21 00:00:31;;;;;;;7.55;2.10;;;;;;;;;;4966642;28;92296;-76
2023/03/21 00:02:59;;;;;;;5.18;1.90;;;;;;;;;;4980554;28;99464;-77
2023/03/21 00:05:25;;;;;;;5.65;2.05;;;;;;;;;;4963029;28;92277;-76
2023/03/21 00:07:52;;;;;;;5.68;2.33;;;;;;;;;;4984991;28;94623;-77
2023/03/21 00:10:19;;;;;;;4.22;2.00;;;;;;;;;;4962258;28;93316;-76
2023/03/21 00:13:04;;;;;;;7.20;1.90;;;;;;;;;;4981914;28;92104;-76
2023/03/21 00:15:31;;;;;;;5.13;1.88;;;;;;;;;;4980649;28;95063;-77
2023/03/21 00:18:14;;;;;;;4.72;1.75;;;;;;;;;;4978495;28;93133;-77
2023/03/21 00:20:41;;;;;;;6.00;1.80;;;;;;;;;;5000138;28;94927;-77
2023/03/21 00:23:08;;;;;;;2.17;1.30;;;;;;;;;;4983028;28;92705;-76
2023/03/21 00:25:34;;;;;;;3.80;1.52;;;;;;;;;;4958910;28;91346;-76
2023/03/21 00:28:01;;;;;;;4.72;1.77;;;;;;;;;;4966761;28;92607;-77
2023/03/21 00:30:34;;;;;;;3.22;1.70;;;;;;;;;;4989277;28;92494;-77
2023/03/21 00:33:00;;;;;;;3.97;1.70;;;;;;;;;;4977517;28;95171;-77
2023/03/21 00:35:46;;;;;;;4.47;2.20;;;;;;;;;;4962190;28;94847;-76
2023/03/21 00:38:32;;;;;;;4.65;1.70;;;;;;;;;;5002758;28;93196;-77
2023/03/21 00:40:59;;;;;;;5.45;2.10;;;;;;;;;;4966953;28;92421;-76
2023/03/21 00:43:33;;;;;;;3.53;1.77;;;;;;;;;;4972049;28;92688;-76
2023/03/21 00:46:00;;;;;;;3.92;1.80;;;;;;;;;;4961474;28;92310;-76
2023/03/21 00:48:26;;;;;;;5.20;1.92;;;;;;;;;;4983291;28;94200;-77
2023/03/21 00:50:53;;;;;;;4.95;1.85;;;;;;;;;;4975438;28;92350;-77
2023/03/21 00:53:20;;;;;;;4.57;2.20;;;;;;;;;;4959799;28;93186;-76
2023/03/21 00:55:47;;;;;;;4.47;2.03;;;;;;;;;;4972735;28;92529;-78
2023/03/21 00:58:14;;;;;;;4.50;1.98;;;;;;;;;;4968304;28;94992;-77
2023/03/21 01:00:40;;;;;;;4.53;1.90;;;;;;;;;;4971970;28;92182;-77
2023/03/21 01:03:08;;;;;;;6.22;1.95;;;;;;;;;;4967606;28;93916;-77
2023/03/21 01:06:05;;;;;;;5.43;1.83;;;;;;;;;;4977033;28;92569;-77
2023/03/21 01:08:42;;;;;;;5.00;2.00;;;;;;;;;;4962371;28;94672;-76
2023/03/21 01:11:25;;;;;;;5.10;1.65;;;;;;;;;;4983243;28;100013;-77
2023/03/21 01:13:52;;;;;;;4.72;2.20;;;;;;;;;;4969028;28;92509;-76
2023/03/21 01:16:25;;;;;;;5.03;1.95;;;;;;;;;;4968955;28;92672;-77
2023/03/21 01:18:52;;;;;;;4.43;2.00;;;;;;;;;;4971689;28;93218;-76
2023/03/21 01:21:18;;;;;;;3.80;2.00;;;;;;;;;;4970065;28;92444;-77
2023/03/21 01:23:45;;;;;;;3.58;1.83;;;;;;;;;;4968764;28;94830;-76
2023/03/21 01:26:11;;;;;;;7.13;2.28;;;;;;;;;;4970912;28;92564;-77
2023/03/21 01:28:40;;;;;;;4.72;2.30;;;;;;;;;;4999010;28;92930;-77
2023/03/21 01:31:07;;;;;;;8.20;2.50;;;;;;;;;;4966478;28;93040;-78
2023/03/21 01:33:33;;;;;;;6.25;2.30;;;;;;;;;;5008098;28;92338;-78
2023/03/21 01:36:00;;;;;;;4.15;2.20;;;;;;;;;;4969716;28;94994;-78
2023/03/21 01:38:37;;;;;;;8.27;2.95;;;;;;;;;;4997169;28;95027;-77
2023/03/21 01:41:05;;;;;;;4.82;2.10;;;;;;;;;;4970787;28;91685;-77
2023/03/21 01:43:45;;;;;;;6.60;2.00;;;;;;;;;;4980178;28;93881;-79
2023/03/21 01:46:27;;;;;;;6.65;1.98;;;;;;;;;;4963795;28;94664;-77
2023/03/21 01:49:15;;;;;;;6.43;2.40;;;;;;;;;;4977962;28;95266;-77
2023/03/21 01:51:47;;;;;;;6.63;2.50;;;;;;;;;;4986498;28;93445;-77
2023/03/21 01:54:22;;;;;;;5.22;1.88;;;;;;;;;;4975803;28;92537;-78
2023/03/21 01:56:50;;;;;;;5.07;2.38;;;;;;;;;;4999739;28;95181;-77
2023/03/21 01:59:37;;;;;;;6.13;2.10;;;;;;;;;;4974992;28;95331;-80
2023/03/21 02:02:12;;;;;;;5.28;2.10;;;;;;;;;;4966721;28;93136;-78
2023/03/21 02:04:54;;;;;;;4.25;2.15;;;;;;;;;;4974385;28;95113;-77
2023/03/21 02:07:24;;;;;;;5.05;2.42;;;;;;;;;;4959799;28;94653;-76
2023/03/21 02:09:56;;;;;;;7.90;2.78;;;;;;;;;;4970029;28;92763;-77
2023/03/21 02:12:24;;;;;;;8.07;2.67;;;;;;;;;;4974486;28;95294;-77
2023/03/21 02:14:51;;;;;;;5.80;2.20;;;;;;;;;;4966631;28;94596;-77
2023/03/21 02:17:27;;;;;;;10.40;2.88;;;;;;;;;;4976815;28;96571;-77
2023/03/21 02:20:10;;;;;;;8.07;2.97;;;;;;;;;;4984725;28;94656;-76
2023/03/21 02:22:52;;;;;;;8.50;2.85;;;;;;;;;;4968652;28;92205;-76
2023/03/21 02:25:37;;;;;;;11.38;3.00;;;;;;;;;;4970318;28;92424;-77
2023/03/21 02:28:06;;;;;;;6.65;3.10;;;;;;;;;;4977539;28;94748;-77
2023/03/21 02:30:54;;;;;;;8.88;2.83;;;;;;;;;;4973566;28;93139;-77
2023/03/21 02:33:22;;;;;;;6.50;2.60;;;;;;;;;;4980090;28;94128;-77
2023/03/21 02:36:06;;;;;;;6.82;2.63;;;;;;;;;;4979846;28;92520;-76
2023/03/21 02:38:47;;;;;;;7.30;3.00;;;;;;;;;;4966239;28;94213;-77
2023/03/21 02:41:16;;;;;;;8.38;3.00;;;;;;;;;;4965393;28;96003;-78
2023/03/21 02:43:52;;;;;;;6.75;2.85;;;;;;;;;;4991688;28;92265;-78
2023/03/21 02:46:27;;;;;;;8.85;2.60;;;;;;;;;;4980227;28;94878;-77
2023/03/21 02:49:23;;;;;;;8.88;3.03;;;;;;;;;;4974425;28;100035;-76
2023/03/21 02:51:49;;;;;;;8.85;3.20;;;;;;;;;;4967501;28;92613;-76
2023/03/21 02:54:18;;;;;;;7.03;2.88;;;;;;;;;;5006408;28;92393;-76
2023/03/21 02:57:04;;;;;;;6.95;2.78;;;;;;;;;;4973529;28;99634;-77
2023/03/21 02:59:31;;;;;;;;;;;;;;;;;;4990443;28;95366;-75
2023/03/21 03:02:01;;;;;;;6.93;3.00;;;;;;;;;;4996975;28;94825;-75
2023/03/21 03:04:27;;;;;;;6.65;2.80;;;;;;;;;;4973653;28;92863;-76
2023/03/21 03:07:05;;;;;;;5.85;3.00;;;;;;;;;;4966847;28;95185;-76
2023/03/21 03:09:43;;;;;;;5.47;2.53;;;;;;;;;;4972817;28;93740;-76
2023/03/21 03:12:22;;;;;;;7.43;2.70;;;;;;;;;;4980132;28;92654;-76
2023/03/21 03:14:56;;;;;;;5.95;3.15;;;;;;;;;;4973051;28;94445;-76
2023/03/21 03:17:39;;;;;;;6.65;2.40;;;;;;;;;;4988099;28;95771;-76
2023/03/21 03:20:12;;;;;;;5.88;3.22;;;;;;;;;;4972887;28;92328;-75
2023/03/21 03:22:52;;;;;;;6.47;2.97;;;;;;;;;;4968652;28;95208;-76
2023/03/21 03:25:21;;;;;;;6.72;2.88;;;;;;;;;;5001578;28;91745;-76
2023/03/21 03:28:07;;;;;;;6.72;2.97;;;;;;;;;;4992089;28;95194;-76
2023/03/21 03:30:35;;;;;;;7.15;2.53;;;;;;;;;;4969050;28;92683;-76
2023/03/21 03:33:13;;;;;;;8.20;2.50;;;;;;;;;;4978929;28;94742;-76
2023/03/21 03:35:40;;;;;;;5.55;2.33;;;;;;;;;;4968207;28;94774;-76
2023/03/21 03:38:08;;;;;;;5.50;2.70;;;;;;;;;;4980656;28;95312;-76
2023/03/21 03:40:34;;;;;;;;;;;;;;;;;;4967100;28;92213;-76
2023/03/21 03:43:12;;;;;;;6.15;2.60;;;;;;;;;;4980507;28;92622;-77
2023/03/21 03:45:47;;;;;;;6.10;2.55;;;;;;;;;;4956496;28;92219;-77
2023/03/21 03:48:24;;;;;;;6.78;3.33;;;;;;;;;;4967922;28;95587;-77
2023/03/21 03:50:54;;;;;;;6.55;2.60;;;;;;;;;;4974228;28;92206;-78
2023/03/21 03:53:36;;;;;;;5.75;2.80;;;;;;;;;;4984633;28;93427;-77
2023/03/21 03:56:04;;;;;;;6.00;2.55;;;;;;;;;;4965860;28;95663;-77
2023/03/21 03:58:31;;;;;;;6.55;2.85;;;;;;;;;;4964469;28;95083;-77
2023/03/21 04:01:12;;;;;;;5.25;2.70;;;;;;;;;;4974044;28;92544;-77
2023/03/21 04:03:40;;;;;;;8.73;3.00;;;;;;;;;;4971107;28;94804;-76
2023/03/21 04:06:16;;;;;;;8.25;2.65;;;;;;;;;;4977786;28;95582;-75
2023/03/21 04:08:43;;;;;;;6.25;2.50;;;;;;;;;;4963807;28;94657;-76
2023/03/21 04:11:12;;;;;;;8.93;2.90;;;;;;;;;;4971330;28;92633;-76
2023/03/21 04:13:38;;;;;;;6.47;2.88;;;;;;;;;;4995349;28;93009;-75
2023/03/21 04:16:08;;;;;;;7.03;2.90;;;;;;;;;;4978601;28;94996;-75
2023/03/21 04:18:35;;;;;;;8.25;3.17;;;;;;;;;;4976586;28;95232;-76
2023/03/21 04:21:02;;;;;;;8.43;3.00;;;;;;;;;;4983047;28;92518;-77
2023/03/21 04:23:29;;;;;;;7.13;3.17;;;;;;;;;;4986238;28;95447;-77
2023/03/21 04:25:55;;;;;;;6.10;3.10;;;;;;;;;;4971762;28;93667;-75
2023/03/21 04:28:35;;;;;;;7.32;3.20;;;;;;;;;;4963796;28;94921;-77
2023/03/21 04:31:19;;;;;;;7.57;2.83;;;;;;;;;;4966412;28;97392;-76
2023/03/21 04:33:59;;;;;;;;;;;;;;;;;;4986981;28;92384;-76
2023/03/21 04:36:32;;;;;;;7.03;2.88;;;;;;;;;;4981186;28;94926;-77
2023/03/21 04:39:00;;;;;;;6.32;3.00;;;;;;;;;;4975719;28;99482;-76
2023/03/21 04:41:27;;;;;;;6.57;2.75;;;;;;;;;;4973931;28;91684;-76
2023/03/21 04:43:55;;;;;;;7.43;2.60;;;;;;;;;;4992115;28;94447;-76
2023/03/21 04:46:22;;;;;;;6.05;2.50;;;;;;;;;;4966674;28;94968;-76
2023/03/21 04:48:49;;;;;;;6.15;2.50;;;;;;;;;;5005457;28;95098;-76
2023/03/21 04:51:15;;;;;;;9.88;2.95;;;;;;;;;;4976929;28;94765;-77
2023/03/21 04:53:44;;;;;;;6.85;3.00;;;;;;;;;;4973325;28;92460;-77
2023/03/21 04:56:11;;;;;;;5.93;2.65;;;;;;;;;;4976274;28;93057;-77
2023/03/21 04:58:39;;;;;;;8.35;2.80;;;;;;;;;;4977981;28;95857;-78
2023/03/21 05:01:06;;;;;;;7.82;2.78;;;;;;;;;;4977564;28;92443;-78
2023/03/21 05:03:33;;;;;;;5.60;2.92;;;;;;;;;;4973784;28;92817;-78
2023/03/21 05:06:00;;;;;;;8.55;3.22;;;;;;;;;;4975027;28;92037;-80
2023/03/21 05:08:26;;;;;;;7.68;2.65;;;;;;;;;;4973324;28;92260;-77
2023/03/21 05:10:53;;;;;;;6.72;2.80;;;;;;;;;;4977502;28;92700;-78
2023/03/21 05:13:20;;;;;;;9.75;2.70;;;;;;;;;;5007149;28;94642;-78
2023/03/21 05:15:47;;;;;;;6.60;2.78;;;;;;;;;;4974578;28;94853;-78
2023/03/21 05:18:14;;;;;;;6.95;2.50;;;;;;;;;;4987327;28;93571;-79
2023/03/21 05:20:56;;;;;;;7.63;2.80;;;;;;;;;;4975374;28;92923;-78
2023/03/21 05:23:23;;;;;;;7.15;2.80;;;;;;;;;;4986713;28;92482;-78
2023/03/21 05:25:50;;;;;;;7.15;2.80;;;;;;;;;;4974691;28;95435;-77
2023/03/21 05:28:30;;;;;;;6.15;2.50;;;;;;;;;;4978033;28;94025;-77
2023/03/21 05:30:58;;;;;;;6.90;2.80;;;;;;;;;;4985597;28;95270;-78
2023/03/21 05:33:25;;;;;;;5.97;2.13;;;;;;;;;;4985532;28;95274;-78
2023/03/21 05:35:51;;;;;;;6.07;2.35;;;;;;;;;;4971939;28;94485;-79
2023/03/21 05:38:18;;;;;;;7.88;2.50;;;;;;;;;;4965331;28;97319;-78
2023/03/21 05:40:49;;;;;;;5.65;2.20;;;;;;;;;;4970076;28;92182;-77
2023/03/21 05:43:16;;;;;;;5.43;2.38;;;;;;;;;;4978364;28;95686;-78
2023/03/21 05:45:44;;;;;;;5.80;2.60;;;;;;;;;;4972513;28;94765;-78
2023/03/21 05:48:10;;;;;;;6.22;2.70;;;;;;;;;;4968982;28;92324;-78
2023/03/21 05:50:53;;;;;;;6.65;2.50;;;;;;;;;;4970570;28;94811;-77
2023/03/21 05:53:21;;;;;;;5.28;2.20;;;;;;;;;;4970106;28;94776;-76
2023/03/21 05:55:48;;;;;;;5.13;2.00;;;;;;;;;;4972157;28;91350;-77
2023/03/21 05:58:32;;;;;;;4.95;2.30;;;;;;;;;;4984076;28;95151;-76
2023/03/21 06:00:58;;;;;;;5.18;2.03;;;;;;;;;;4983315;28;96615;-76
2023/03/21 06:03:30;;;;;;;5.70;2.17;;;;;;;;;;4981931;28;94838;-77
2023/03/21 06:06:11;;;;;;;6.93;2.60;;;;;;;;;;4974942;28;95673;-78
2023/03/21 06:08:44;;;;;;;6.28;2.33;;;;;;;;;;4967480;28;92599;-77
2023/03/21 06:11:18;;;;;;;5.32;2.13;;;;;;;;;;4968519;28;94825;-77
2023/03/21 06:13:44;;;;;;;;;;;;;;;;;;4969466;28;93934;-77
2023/03/21 06:16:11;;;;;;;6.05;2.28;;;;;;;;;;4974330;28;106572;-77
2023/03/21 06:18:38;;;;;;;6.57;2.20;;;;;;;;;;4972020;28;95363;-76
2023/03/21 06:21:28;;;;;;;7.00;2.22;;;;;;;;;;4984104;28;92333;-77
2023/03/21 06:23:55;;;;;;;6.80;2.20;;;;;;;;;;4986706;28;94294;-77
2023/03/21 06:26:22;;;;;;;5.05;2.00;;;;;;;;;;5005043;28;95806;-77
2023/03/21 06:28:51;;;;;;;4.60;2.15;;;;;;;;;;4970093;28;94967;-77
2023/03/21 06:31:18;;;;;;;4.72;2.33;;;;;;;;;;4973833;28;95077;-77
2023/03/21 06:33:45;;;;;;;7.95;2.40;;;;;;;;;;4964584;28;92682;-77
2023/03/21 06:36:12;;;;;;;6.82;2.15;;;;;;;;;;4973024;28;92733;-77
2023/03/21 06:38:38;;;;;;;5.10;2.10;;;;;;;;;;4997483;28;94623;-76
2023/03/21 06:41:06;;;;;;;5.85;2.10;;;;;;;;;;4997117;28;92314;-76
2023/03/21 06:43:39;;;;;;;7.07;2.30;;;;;;;;;;4975610;28;93493;-76
2023/03/21 06:46:06;;;;;;;5.63;2.15;;;;;;;;;;4973416;28;94520;-77
2023/03/21 06:48:33;;;;;;;5.93;2.30;;;;;;;;;;4975409;28;92681;-76
2023/03/21 06:50:59;;;;;;;6.53;2.03;;;;;;;;;;5009288;28;99132;-77
2023/03/21 06:53:28;;;;;;;6.88;2.30;;;;;;;;;;4992503;28;97819;-76
2023/03/21 06:56:19;;;;;;;6.97;2.20;;;;;;;;;;4987937;28;93182;-77
2023/03/21 06:58:46;;;;;;;7.20;2.47;;;;;;;;;;4985267;28;93596;-76
2023/03/21 07:01:29;;;;;;;5.45;2.20;;;;;;;;;;4976082;28;92739;-77
2023/03/21 07:04:03;;;;;;;6.50;2.28;;;;;;;;;;4966940;28;94137;-77
2023/03/21 07:06:30;;;;;;;;;;;;;;;;;;4974273;28;95100;-76
2023/03/21 07:08:57;;;;;;;4.25;2.00;;;;;;;;;;4965764;28;92328;-76
2023/03/21 07:11:24;;;;;;;5.30;2.00;;;;;;;;;;4964614;28;95800;-76
2023/03/21 07:13:51;;;;;;;6.22;2.30;;;;;;;;;;4980773;28;95234;-77
2023/03/21 07:16:18;;;;;;;3.90;1.70;;;;;;;;;;4988577;28;92400;-76
2023/03/21 07:18:45;;;;;;;5.78;2.25;;;;;;;;;;4964270;28;94737;-76
2023/03/21 07:21:12;;;;;;;8.32;2.45;;;;;;;;;;4966107;28;93208;-77
2023/03/21 07:23:39;;;;;;;6.82;2.42;;;;;;;;;;5004597;28;92828;-79
2023/03/21 07:26:05;;;;;;;5.68;2.30;;;;;;;;;;5002352;28;95583;-78
2023/03/21 07:28:32;;;;;;;7.53;2.42;;;;;;;;;;4966226;28;92396;-78
2023/03/21 07:31:00;;;;;;;;;;;;;;;;;;4967899;28;96793;-77
2023/03/21 07:33:27;;;;;;;6.10;1.95;;;;;;;;;;4987700;28;94174;-77
2023/03/21 07:35:58;;;;;;;8.20;2.25;;;;;;;;;;4984708;28;92968;-77
2023/03/21 07:38:25;;;;;;;5.38;2.00;;;;;;;;;;4970389;28;92556;-77
2023/03/21 07:40:51;;;;;;;6.93;2.38;;;;;;;;;;4982617;28;93029;-77
2023/03/21 07:43:18;;;;;;;6.88;2.17;;;;;;;;;;4967226;28;94908;-77
2023/03/21 07:45:54;;;;;;;5.55;2.40;;;;;;;;;;4969155;28;94772;-76
2023/03/21 07:48:21;;;;;;;8.43;2.30;;;;;;;;;;4969246;28;92215;-75
2023/03/21 07:50:49;;;;;;;7.55;2.30;;;;;;;;;;4975034;28;92611;-76
2023/03/21 07:53:15;;;;;;;8.23;2.40;;;;;;;;;;4962103;28;93297;-76
2023/03/21 07:55:42;;;;;;;5.90;2.15;;;;;;;;;;4997867;28;92586;-77
2023/03/21 07:58:08;;;;;;;5.28;2.10;;;;;;;;;;4972550;28;92557;-76
2023/03/21 08:00:35;;;;;;;6.20;2.25;;;;;;;;;;4964676;28;94737;-78
2023/03/21 08:03:01;;;;;;;8.45;2.67;;;;;;;;;;4955120;28;92633;-78
2023/03/21 08:05:29;;;;;;;11.15;2.35;;;;;;;;;;4964224;28;94212;-79
2023/03/21 08:07:56;;;;;;;6.53;2.25;;;;;;;;;;4964241;28;96390;-79
2023/03/21 08:10:23;;;;;;;7.90;1.92;;;;;;;;;;4996985;28;94775;-78
2023/03/21 08:12:49;;;;;;;6.35;2.20;;;;;;;;;;4961955;28;93415;-79
2023/03/21 08:15:16;;;;;;;6.78;2.10;;;;;;;;;;4965062;28;92704;-78
2023/03/21 08:17:44;;;;;;;4.68;1.70;;;;;;;;;;4982014;28;92490;-80
2023/03/21 08:20:15;;;;;;;5.20;1.80;;;;;;;;;;4976609;28;93185;-80
2023/03/21 08:22:42;;;;;;;7.30;2.30;;;;;;;;;;4985726;28;92354;-78
2023/03/21 08:25:12;;;;;;;6.30;2.15;;;;;;;;;;4976192;28;92942;-79
2023/03/21 08:27:39;;;;;;;5.40;2.05;;;;;;;;;;4992147;28;94891;-79
2023/03/21 08:30:07;;;;;;;8.77;2.28;;;;;;;;;;4978056;28;92525;-79
2023/03/21 08:32:33;;;;;;;;;;;;;;;;;;4977938;28;95056;-79
2023/03/21 08:35:00;;;;;;;6.78;1.85;;;;;;;;;;4976785;28;120878;-79
2023/03/21 08:37:27;;;;;;;8.52;1.92;;;;;;;;;;4976283;28;92456;-77
2023/03/21 08:39:54;;;;;;;5.75;1.95;;;;;;;;;;4976333;28;93428;-78
2023/03/21 08:42:21;;;;;;;6.15;1.80;;;;;;;;;;4976364;28;92177;-78
2023/03/21 08:44:48;;;;;;;6.68;1.95;;;;;;;;;;4975740;28;93526;-78
2023/03/21 08:47:15;;;;;;;5.60;1.95;;;;;;;;;;4980248;28;93913;-78
2023/03/21 08:49:44;;;;;;;7.18;1.80;;;;;;;;;;4980311;28;92031;-78
2023/03/21 08:52:10;;;;;;;9.73;2.05;;;;;;;;;;4989826;28;92731;-76
2023/03/21 08:54:37;;;;;;;7.57;2.00;;;;;;;;;;4975969;28;92398;-77
2023/03/21 08:57:03;;;;;;;7.28;1.80;;;;;;;;;;4975785;28;95200;-77
2023/03/21 08:59:30;;;;;;;5.03;1.67;;;;;;;;;;4993849;28;94309;-76
2023/03/21 09:01:56;;;;;;;6.35;1.70;;;;;;;;;;4988091;28;92853;-76
2023/03/21 09:04:24;;;;;;;5.80;1.83;;;;;;;;;;4971253;28;92694;-76
2023/03/21 09:06:51;;;;;;;6.15;1.67;;;;;;;;;;4983412;28;95111;-75
2023/03/21 09:09:17;;;;;;;5.32;1.80;;;;;;;;;;4979226;28;92430;-76
2023/03/21 09:11:44;;;;;;;5.35;1.83;;;;;;;;;;4996746;28;95203;-76
2023/03/21 09:14:10;;;;;;;4.85;1.80;;;;;;;;;;4978088;28;91428;-76
2023/03/21 09:16:37;;;;;;;4.18;1.85;;;;;;;;;;4983143;28;94037;-76
2023/03/21 09:19:03;;;;;;;3.85;1.70;;;;;;;;;;4973685;28;95926;-76
2023/03/21 09:21:30;;;;;;;5.13;1.70;;;;;;;;;;4980307;28;94896;-76
2023/03/21 09:23:58;;;;;;;7.30;1.75;;;;;;;;;;4978646;28;94986;-75
2023/03/21 09:26:26;;;;;;;5.20;1.73;;;;;;;;;;5000839;28;93216;-75
2023/03/21 09:28:54;;;;;;;4.35;1.50;;;;;;;;;;4976497;28;92811;-75
2023/03/21 09:31:21;;;;;;;5.70;1.80;;;;;;;;;;4977473;28;92573;-75
2023/03/21 09:33:49;;;;;;;7.50;1.90;;;;;;;;;;4979557;28;92718;-76
2023/03/21 09:36:17;;;;;;;4.07;1.60;;;;;;;;;;4987821;28;92721;-76
2023/03/21 09:38:45;;;;;;;3.63;1.58;;;;;;;;;;4981624;28;92201;-76
2023/03/21 09:41:23;;;;;;;5.25;1.65;;;;;;;;;;4989404;28;92163;-75
2023/03/21 09:43:54;;;;;;;4.43;1.73;;;;;;;;;;4982462;28;93055;-75
2023/03/21 09:46:44;;;;;;;3.95;1.63;;;;;;;;;;4981645;28;95652;-75
2023/03/21 09:49:24;;;;;;;3.42;1.63;;;;;;;;;;4974553;28;92400;-76
2023/03/21 09:51:51;;;;;;;;;;;;;;;;;;4983929;28;92726;-76
2023/03/21 09:54:22;;;;;;;4.00;1.52;;;;;;;;;;4980567;28;118329;-76
2023/03/21 09:56:51;;;;;;;4.00;1.80;;;;;;;;;;4983819;28;93052;-75
2023/03/21 09:59:24;;;;;;;3.85;1.70;;;;;;;;;;4976496;28;92571;-76
2023/03/21 10:01:51;;;;;;;4.13;1.60;;;;;;;;;;4990789;28;92378;-75
2023/03/21 10:04:19;;;;;;;6.05;1.92;;;;;;;;;;4981362;28;92489;-74
2023/03/21 10:06:50;;;;;;;5.78;1.90;;;;;;;;;;4990147;28;93892;-74
2023/03/21 10:09:21;;;;;;;4.32;1.95;;;;;;;;;;4980775;28;92530;-75
2023/03/21 10:11:51;;;;;;;4.45;1.75;;;;;;;;;;4980467;28;94926;-74
2023/03/21 10:14:20;;;;;;;3.88;1.60;;;;;;;;;;4980223;28;92447;-74
2023/03/21 10:16:48;;;;;;;4.38;1.83;;;;;;;;;;4983016;28;92485;-76
2023/03/21 10:19:16;;;;;;;4.22;1.60;;;;;;;;;;4999078;28;95097;-75
2023/03/21 10:21:44;;;;;;;4.15;1.60;;;;;;;;;;4982286;28;92192;-75
2023/03/21 10:24:30;;;;;;;5.03;1.90;;;;;;;;;;4978063;28;93767;-76
2023/03/21 10:26:57;;;;;;;4.80;1.85;;;;;;;;;;4974847;28;94080;-76
2023/03/21 10:29:29;;;;;;;4.10;1.60;;;;;;;;;;5007767;28;91920;-77
2023/03/21 10:31:55;;;;;;;4.75;1.70;;;;;;;;;;5002185;28;93886;-76
2023/03/21 10:34:28;;;;;;;4.13;1.70;;;;;;;;;;4974346;28;92631;-74
2023/03/21 10:36:54;;;;;;;4.47;2.17;;;;;;;;;;4993482;28;94898;-76
2023/03/21 10:39:47;;;;;;;3.58;1.70;;;;;;;;;;4983660;28;95368;-76
2023/03/21 10:42:23;;;;;;;7.20;1.75;;;;;;;;;;4969957;28;92592;-75
2023/03/21 10:44:51;;;;;;;3.83;1.58;;;;;;;;;;4961334;28;92204;-74
2023/03/21 10:47:19;;;;;;;4.63;1.73;;;;;;;;;;4997527;28;95330;-75
2023/03/21 10:49:46;;;;;;;3.83;1.55;;;;;;;;;;4967192;28;92334;-75
2023/03/21 10:52:33;;;;;;;5.57;1.73;;;;;;;;;;4966634;28;95097;-75
2023/03/21 10:55:18;;;;;;;5.43;1.77;;;;;;;;;;5000720;28;98783;-76
2023/03/21 10:57:45;;;;;;;5.47;1.88;;;;;;;;;;4975287;28;92867;-74
2023/03/21 11:00:23;;;;;;;5.70;1.98;;;;;;;;;;4968471;28;95124;-75
2023/03/21 11:02:51;;;;;;;4.43;2.05;;;;;;;;;;4963303;28;95187;-75
2023/03/21 11:05:31;;;;;;;6.85;2.13;;;;;;;;;;4976622;28;94906;-75
2023/03/21 11:08:01;;;;;;;6.20;1.92;;;;;;;;;;4983592;28;94920;-76
2023/03/21 11:10:29;;;;;;;6.28;2.08;;;;;;;;;;4988447;28;92668;-76
2023/03/21 11:12:56;;;;;;;6.35;1.70;;;;;;;;;;4975104;28;95864;-76
2023/03/21 11:15:31;;;;;;;3.78;1.80;;;;;;;;;;4961200;28;93285;-76
2023/03/21 11:17:58;;;;;;;5.65;1.67;;;;;;;;;;4966750;28;92410;-76
2023/03/21 11:20:24;;;;;;;;;;;;;;;;;;4961771;28;94600;-76
2023/03/21 11:22:53;;;;;;;5.80;1.65;;;;;;;;;;4977144;28;122544;-76
2023/03/21 11:25:36;;;;;;;5.47;1.70;;;;;;;;;;4973591;28;92536;-76
2023/03/21 11:28:14;;;;;;;4.45;1.80;;;;;;;;;;4959894;28;95177;-76
2023/03/21 11:30:52;;;;;;;4.65;1.67;;;;;;;;;;4961689;28;92568;-77
2023/03/21 11:33:20;;;;;;;3.40;1.60;;;;;;;;;;4992463;28;92848;-76
2023/03/21 11:35:58;;;;;;;5.88;1.77;;;;;;;;;;4978566;28;93560;-76
2023/03/21 11:38:34;;;;;;;8.85;1.88;;;;;;;;;;4981166;28;92313;-76
2023/03/21 11:41:01;;;;;;;4.55;1.52;;;;;;;;;;4981649;28;98510;-76
2023/03/21 11:43:30;;;;;;;3.10;1.30;;;;;;;;;;4976237;28;93553;-76
2023/03/21 11:45:57;;;;;;;4.88;1.73;;;;;;;;;;4979471;28;91423;-75
2023/03/21 11:48:23;;;;;;;5.75;1.60;;;;;;;;;;5009832;28;93290;-75
2023/03/21 11:50:55;;;;;;;5.25;1.90;;;;;;;;;;4978155;28;92515;-75
2023/03/21 11:53:25;;;;;;;7.30;2.03;;;;;;;;;;4964946;28;94549;-75
2023/03/21 11:56:10;;;;;;;6.53;2.30;;;;;;;;;;4976545;28;93233;-76
2023/03/21 11:58:40;;;;;;;5.80;2.60;;;;;;;;;;4966677;28;92310;-76
2023/03/21 12:01:14;;;;;;;6.05;3.00;;;;;;;;;;4995263;28;92728;-75
2023/03/21 12:03:43;;;;;;;6.93;2.70;;;;;;;;;;4976139;28;92706;-76
2023/03/21 12:06:26;;;;;;;7.55;3.03;;;;;;;;;;4982333;28;92267;-76
2023/03/21 12:09:07;;;;;;;7.82;2.80;;;;;;;;;;4975231;28;92510;-76
2023/03/21 12:11:41;;;;;;;8.32;2.85;;;;;;;;;;4985781;28;92875;-76
2023/03/21 12:14:08;;;;;;;7.38;2.30;;;;;;;;;;4975780;28;94074;-75
2023/03/21 12:16:42;;;;;;;9.85;2.75;;;;;;;;;;4971970;28;93044;-76
2023/03/21 12:19:20;;;;;;;7.30;2.53;;;;;;;;;;4974306;28;94858;-77
2023/03/21 12:21:46;;;;;;;8.68;2.60;;;;;;;;;;4985975;28;95062;-74
2023/03/21 12:24:21;;;;;;;6.63;2.50;;;;;;;;;;4984411;28;94694;-76
2023/03/21 12:26:53;;;;;;;7.60;2.30;;;;;;;;;;4971997;28;92116;-76
2023/03/21 12:29:38;;;;;;;7.22;2.47;;;;;;;;;;4978626;28;93236;-75
2023/03/21 12:32:17;;;;;;;6.72;2.28;;;;;;;;;;4986897;28;92929;-75
2023/03/21 12:35:02;;;;;;;9.57;2.38;;;;;;;;;;5001042;28;92403;-75
2023/03/21 12:37:40;;;;;;;6.68;2.25;;;;;;;;;;4992764;28;94777;-75
2023/03/21 12:40:25;;;;;;;6.18;2.50;;;;;;;;;;4979449;28;92369;-75
2023/03/21 12:42:55;;;;;;;6.53;2.10;;;;;;;;;;4992038;28;92814;-75
2023/03/21 12:45:33;;;;;;;6.80;2.00;;;;;;;;;;4976251;28;95304;-74
2023/03/21 12:48:14;;;;;;;6.90;2.20;;;;;;;;;;4976407;28;92357;-74
2023/03/21 12:50:41;;;;;;;6.38;2.30;;;;;;;;;;4974973;28;92438;-74
2023/03/21 12:53:24;;;;;;;5.90;2.30;;;;;;;;;;4980425;28;92798;-74
2023/03/21 12:55:52;;;;;;;7.90;2.50;;;;;;;;;;4980336;28;92445;-74
2023/03/21 12:58:21;;;;;;;6.28;2.20;;;;;;;;;;4979990;28;92489;-74
2023/03/21 13:00:48;;;;;;;5.63;2.38;;;;;;;;;;4973598;28;92661;-75
2023/03/21 13:03:17;;;;;;;6.63;2.53;;;;;;;;;;4975646;28;92342;-75
2023/03/21 13:05:52;;;;;;;4.07;1.65;;;;;;;;;;4972462;28;93308;-75
2023/03/21 13:08:28;;;;;;;4.20;1.88;;;;;;;;;;4976025;28;92526;-75
2023/03/21 13:10:55;;;;;;;6.63;2.20;;;;;;;;;;4972957;28;95734;-76
2023/03/21 13:13:38;;;;;;;7.40;2.42;;;;;;;;;;4977311;28;93215;-75
2023/03/21 13:16:05;;;;;;;15.30;2.92;;;;;;;;;;4976479;28;93584;-75
2023/03/21 13:18:43;;;;;;;6.70;2.30;;;;;;;;;;4977491;28;93199;-75
2023/03/21 13:21:15;;;;;;;8.88;2.47;;;;;;;;;;4983039;28;93103;-75
2023/03/21 13:23:54;;;;;;;6.93;2.17;;;;;;;;;;4986372;28;92564;-75
2023/03/21 13:26:30;;;;;;;7.05;2.78;;;;;;;;;;4974161;28;93481;-76
2023/03/21 13:28:57;;;;;;;5.95;2.38;;;;;;;;;;4967372;28;91955;-74
2023/03/21 13:31:26;;;;;;;6.05;2.40;;;;;;;;;;4973700;28;92798;-75
2023/03/21 13:33:58;;;;;;;6.22;2.30;;;;;;;;;;4975793;28;93440;-74
2023/03/21 13:36:28;;;;;;;5.90;2.15;;;;;;;;;;4982305;28;95029;-75
2023/03/21 13:38:59;;;;;;;5.35;2.35;;;;;;;;;;4966757;28;94924;-75
2023/03/21 13:41:30;;;;;;;7.78;2.80;;;;;;;;;;4973494;28;92541;-74
2023/03/21 13:44:01;;;;;;;6.97;3.10;;;;;;;;;;4986410;28;93996;-75
2023/03/21 13:46:28;;;;;;;8.30;2.90;;;;;;;;;;4993769;28;92813;-75
2023/03/21 13:48:59;;;;;;;6.68;2.80;;;;;;;;;;4968529;28;93295;-75
2023/03/21 13:51:34;;;;;;;6.07;2.53;;;;;;;;;;4962611;28;93117;-75
2023/03/21 13:54:07;;;;;;;5.28;2.40;;;;;;;;;;4970573;28;92569;-75
2023/03/21 13:56:43;;;;;;;8.02;2.85;;;;;;;;;;4970482;28;94903;-75
2023/03/21 13:59:10;;;;;;;6.43;2.60;;;;;;;;;;4999600;28;92560;-75
2023/03/21 14:01:40;;;;;;;5.53;2.30;;;;;;;;;;4961930;28;95003;-75
2023/03/21 14:04:15;;;;;;;7.13;2.40;;;;;;;;;;4976625;28;92398;-75
2023/03/21 14:07:01;;;;;;;6.47;2.22;;;;;;;;;;4958543;28;92919;-75
2023/03/21 14:09:31;;;;;;;5.45;2.30;;;;;;;;;;4982351;28;92260;-75
2023/03/21 14:11:58;;;;;;;6.80;2.60;;;;;;;;;;4965711;28;93074;-75
2023/03/21 14:14:35;;;;;;;5.30;2.15;;;;;;;;;;4962558;28;92920;-75
2023/03/21 14:17:10;;;;;;;16.60;2.20;;;;;;;;;;4965107;28;92444;-75
2023/03/21 14:19:37;;;;;;;5.28;2.05;;;;;;;;;;4965905;28;92330;-74
2023/03/21 14:22:09;;;;;;;6.00;2.40;;;;;;;;;;4963057;28;92719;-74
2023/03/21 14:24:35;;;;;;;6.60;2.47;;;;;;;;;;4968229;28;92285;-75
2023/03/21 14:27:03;;;;;;;5.15;2.00;;;;;;;;;;5021317;28;95524;-74
2023/03/21 14:29:32;;;;;;;6.25;2.30;;;;;;;;;;4977756;28;93063;-75
2023/03/21 14:31:59;;;;;;;5.05;2.20;;;;;;;;;;5008799;28;94694;-75
2023/03/21 14:34:27;;;;;;;6.20;2.40;;;;;;;;;;4972933;28;92698;-74
2023/03/21 14:36:54;;;;;;;5.38;2.22;;;;;;;;;;4967914;28;92361;-75
2023/03/21 14:39:28;;;;;;;4.50;2.10;;;;;;;;;;4974852;28;95500;-76
2023/03/21 14:42:03;;;;;;;7.50;2.08;;;;;;;;;;4972708;28;96398;-74
2023/03/21 14:44:35;;;;;;;5.25;2.00;;;;;;;;;;5001933;28;91742;-74
2023/03/21 14:47:20;;;;;;;4.85;2.63;;;;;;;;;;4964711;28;96237;-75
2023/03/21 14:49:48;;;;;;;6.82;2.55;;;;;;;;;;4957680;28;93588;-74
2023/03/21 14:52:26;;;;;;;4.40;2.10;;;;;;;;;;4939690;28;94655;-76
2023/03/21 14:54:53;;;;;;;3.60;1.90;;;;;;;;;;4948248;28;93881;-75
2023/03/21 14:57:24;;;;;;;5.03;2.40;;;;;;;;;;4956383;28;92388;-75
2023/03/21 14:59:53;;;;;;;5.57;2.30;;;;;;;;;;4968993;28;92591;-75
2023/03/21 15:02:22;;;;;;;4.88;2.20;;;;;;;;;;4948234;28;92727;-75
2023/03/21 15:04:52;;;;;;;5.35;2.38;;;;;;;;;;4948083;28;95173;-75
2023/03/21 15:07:23;;;;;;;6.97;2.65;;;;;;;;;;4955840;28;92375;-75
2023/03/21 15:09:55;;;;;;;6.00;2.58;;;;;;;;;;4958059;28;91602;-75